Ag Nektarios Aiginas — SX7083 — position and weather

sailwx.info

Track history (hours):
 
Tides and Currents Weather Stations Pressure Air Temp Water Temp Dewpoint Dewpoint Depression Visibility Wind Speed Wind Dir Waves Ship Positions

Ag Nektarios Aiginas

Last reported at 2016-May-31 17:06 UTC. Time now 2016-Jun-01 01:41 UTC.
Position N 37°57' E 023°39'.

Length 75 m; draft 2.7 m.

Type: Passenger vessel. MMSI: 237021400.

Date/timePositionNaut miles runAvg speedWind from/ knotsBaromVisibWave heightAir tempDewpointWater temp
2016-May-31 17:06N 37°57' E 023°39'2 3.1
2016-May-31 16:33N 37°56' E 023°37'1312.5
2016-May-31 15:33N 37°47' E 023°26'0 0.2
2016-May-31 14:33N 37°46' E 023°26'1212.1
2016-May-31 13:33N 37°55' E 023°36'1 0.6
2016-May-31 12:33N 37°56' E 023°36'1212.4
2016-May-31 11:33N 37°47' E 023°26'0 0.3
2016-May-31 10:33N 37°47' E 023°26'1212.1
2016-May-31 09:33N 37°56' E 023°36'2 2.0
2016-May-31 08:33N 37°57' E 023°38'1211.9
2016-May-31 07:33N 37°48' E 023°28'2 2.0
2016-May-31 06:33N 37°47' E 023°26'14 7.0
2016-May-31 04:33N 37°57' E 023°39'2 0.2
2016-May-30 16:33N 37°56' E 023°36'1312.6
2016-May-30 15:33N 37°47' E 023°26'1 0.5
2016-May-30 14:33N 37°46' E 023°25'1212.3
2016-May-30 13:34N 37°55' E 023°36'1 0.8
2016-May-30 12:34N 37°56' E 023°36'1312.5
2016-May-30 11:33N 37°47' E 023°25'1 0.8
2016-May-30 10:33N 37°46' E 023°25'1212.3
2016-May-30 09:33N 37°55' E 023°35'3 3.0
2016-May-30 08:33N 37°57' E 023°38'1111.1
2016-May-30 07:33N 37°48' E 023°29'3 3.1
2016-May-30 06:33N 37°47' E 023°26'1312.6
2016-May-30 05:34N 37°56' E 023°37'2 1.7
2016-May-30 04:33N 37°57' E 023°39'0 0.0
2016-May-29 19:33N 37°57' E 023°39'1010.1
2016-May-29 18:33N 37°49' E 023°30'5 5.4
2016-May-29 17:33N 37°46' E 023°25'1212.3
2016-May-29 16:33N 37°54' E 023°36'1 1.1
2016-May-29 15:33N 37°54' E 023°35'1111.3
2016-May-29 14:32N 37°45' E 023°25'4 4.0
2016-May-29 13:33N 37°48' E 023°28'1211.7
2016-May-29 12:33N 37°57' E 023°38'6 5.6
2016-May-29 11:33N 37°53' E 023°34'1010.2
2016-May-29 10:33N 37°45' E 023°25'4 3.7
2016-May-29 09:33N 37°48' E 023°28'1212.0
2016-May-29 08:33N 37°57' E 023°38'4 3.7
2016-May-29 07:33N 37°54' E 023°35'1212.1
2016-May-29 06:33N 37°45' E 023°25'6 6.4
2016-May-29 05:33N 37°50' E 023°30'9 9.6
2016-May-29 04:33N 37°57' E 023°39'2 0.1
2016-May-28 16:33N 37°56' E 023°37'1312.8
2016-May-28 15:33N 37°47' E 023°25'0 0.4
2016-May-28 14:33N 37°46' E 023°25'1212.1
2016-May-28 13:34N 37°55' E 023°36'1 1.1
2016-May-28 12:33N 37°56' E 023°37'1312.6
2016-May-28 11:33N 37°47' E 023°26'0 0.2
2016-May-28 10:33N 37°47' E 023°25'1212.1
2016-May-28 09:34N 37°55' E 023°36'2 2.3
2016-May-28 08:33N 37°57' E 023°38'1212.2
2016-May-28 07:33N 37°48' E 023°28'2 1.7
2016-May-28 06:33N 37°47' E 023°26'1212.2
2016-May-28 05:33N 37°56' E 023°37'2 1.8
2016-May-28 04:33N 37°57' E 023°39'2 0.1
2016-May-27 16:33N 37°56' E 023°37'1312.7
2016-May-27 15:33N 37°47' E 023°26'0 0.3
2016-May-27 14:33N 37°46' E 023°25'1212.2
2016-May-27 13:34N 37°55' E 023°36'1 1.1
2016-May-27 12:33N 37°56' E 023°37'1312.6
2016-May-27 11:34N 37°47' E 023°26'1 0.8
2016-May-27 10:33N 37°46' E 023°25'1211.8
2016-May-27 09:33N 37°55' E 023°36'2 1.9
2016-May-27 08:33N 37°56' E 023°37'1111.0
2016-May-27 07:33N 37°48' E 023°28'2 1.9
2016-May-27 06:33N 37°47' E 023°26'1212.2
2016-May-27 05:34N 37°55' E 023°36'2 2.0
2016-May-27 04:33N 37°57' E 023°39'1 0.1
2016-May-26 16:33N 37°56' E 023°37'1312.8
2016-May-26 15:33N 37°47' E 023°26'0 0.1
2016-May-26 14:33N 37°47' E 023°26'1212.0
2016-May-26 13:33N 37°55' E 023°36'1 0.9
2016-May-26 12:33N 37°56' E 023°37'1312.8
2016-May-26 11:34N 37°47' E 023°26'0 0.5
2016-May-26 10:33N 37°46' E 023°25'1212.1
2016-May-26 09:33N 37°55' E 023°36'2 2.4
2016-May-26 08:33N 37°57' E 023°38'1211.9
2016-May-26 07:33N 37°48' E 023°28'2 1.9
2016-May-26 06:33N 37°47' E 023°26'1211.9
2016-May-26 05:33N 37°55' E 023°36'2 2.1
2016-May-26 04:33N 37°57' E 023°39'0 0.0
2016-May-25 17:08N 37°57' E 023°39'3 4.8
2016-May-25 16:34N 37°55' E 023°36'1211.9
2016-May-25 15:33N 37°46' E 023°25'0 0.1
2016-May-25 14:33N 37°46' E 023°25'1212.2
2016-May-25 13:33N 37°55' E 023°36'2 1.5
2016-May-25 12:25N 37°54' E 023°35'10 5.5
2016-May-25 10:33N 37°47' E 023°26'1212.1
2016-May-25 09:34N 37°55' E 023°36'2 1.6
2016-May-25 08:33N 37°56' E 023°38'1511.5
2016-May-25 07:15N 37°45' E 023°25'2 2.8
2016-May-25 06:33N 37°47' E 023°26'1212.0
2016-May-25 05:33N 37°56' E 023°36'2 1.9
2016-May-25 04:34N 37°57' E 023°39'0 0.0
2016-May-24 17:10N 37°57' E 023°39'2 3.4
2016-May-24 16:33N 37°56' E 023°36'1212.2
2016-May-24 15:33N 37°47' E 023°26'0 0.3
2016-May-24 14:34N 37°47' E 023°26'1212.3
2016-May-24 13:33N 37°55' E 023°36'1 0.5
2016-May-24 12:33N 37°56' E 023°37'1312.6
2016-May-24 11:33N 37°47' E 023°26'0 0.2
2016-May-24 10:33N 37°47' E 023°26'1212.2
2016-May-24 09:33N 37°55' E 023°37'2 1.9
2016-May-24 08:33N 37°57' E 023°38'1211.9
2016-May-24 07:33N 37°48' E 023°28'2 1.9
2016-May-24 06:33N 37°47' E 023°26'1212.3
2016-May-24 05:33N 37°56' E 023°37'2 1.5
2016-May-24 04:33N 37°57' E 023°38'2 0.1
2016-May-23 16:33N 37°56' E 023°36'1312.6
2016-May-23 15:33N 37°47' E 023°26'1 0.6
2016-May-23 14:33N 37°46' E 023°25'1212.1
2016-May-23 13:34N 37°55' E 023°36'1 1.0
2016-May-23 12:34N 37°56' E 023°37'1312.7
2016-May-23 11:34N 37°46' E 023°25'0 0.1
2016-May-23 10:33N 37°47' E 023°26'1212.1
2016-May-23 09:33N 37°55' E 023°36'2 2.0
2016-May-23 08:33N 37°56' E 023°38'1212.2
2016-May-23 07:34N 37°48' E 023°28'2 1.7
2016-May-23 06:34N 37°47' E 023°26'1212.1
2016-May-23 05:33N 37°55' E 023°37'2 1.9
2016-May-23 04:34N 37°57' E 023°39'0 0.0
2016-May-22 17:23N 37°57' E 023°39'3 3.4
2016-May-22 16:33N 37°55' E 023°36'1211.7
2016-May-22 15:33N 37°47' E 023°25'1 0.6
2016-May-22 14:33N 37°46' E 023°25'1212.5
2016-May-22 13:33N 37°55' E 023°36'0 0.1
2016-May-22 12:34N 37°55' E 023°36'1211.9
2016-May-22 11:34N 37°46' E 023°25'1 0.6
2016-May-22 10:33N 37°46' E 023°25'1212.3
2016-May-22 09:34N 37°55' E 023°36'2 2.3
2016-May-22 08:34N 37°56' E 023°38'1211.6
2016-May-22 07:33N 37°48' E 023°28'2 1.8
2016-May-22 06:34N 37°47' E 023°26'1212.3
2016-May-22 05:34N 37°56' E 023°37'2 1.6
2016-May-22 04:34N 37°57' E 023°39'  
Track history (hours):
 
Tides and Currents Weather Stations Pressure Air Temp Water Temp Dewpoint Dewpoint Depression Visibility Wind Speed Wind Dir Waves Ship Positions

Ag Nektarios Aiginas

Last reported at 2016-May-31 17:06 UTC. Time now 2016-Jun-01 01:41 UTC.
Position N 37°57' E 023°39'.

Length 75 m; draft 2.7 m.

Type: Passenger vessel. MMSI: 237021400.

Date/timePositionNaut miles runAvg speedWind from/ knotsBaromVisibWave heightAir tempDewpointWater temp
2016-May-31 17:06N 37°57' E 023°39'2 3.1
2016-May-31 16:33N 37°56' E 023°37'1312.5
2016-May-31 15:33N 37°47' E 023°26'0 0.2
2016-May-31 14:33N 37°46' E 023°26'1212.1
2016-May-31 13:33N 37°55' E 023°36'1 0.6
2016-May-31 12:33N 37°56' E 023°36'1212.4
2016-May-31 11:33N 37°47' E 023°26'0 0.3
2016-May-31 10:33N 37°47' E 023°26'1212.1
2016-May-31 09:33N 37°56' E 023°36'2 2.0
2016-May-31 08:33N 37°57' E 023°38'1211.9
2016-May-31 07:33N 37°48' E 023°28'2 2.0
2016-May-31 06:33N 37°47' E 023°26'14 7.0
2016-May-31 04:33N 37°57' E 023°39'2 0.2
2016-May-30 16:33N 37°56' E 023°36'1312.6
2016-May-30 15:33N 37°47' E 023°26'1 0.5
2016-May-30 14:33N 37°46' E 023°25'1212.3
2016-May-30 13:34N 37°55' E 023°36'1 0.8
2016-May-30 12:34N 37°56' E 023°36'1312.5
2016-May-30 11:33N 37°47' E 023°25'1 0.8
2016-May-30 10:33N 37°46' E 023°25'1212.3
2016-May-30 09:33N 37°55' E 023°35'3 3.0
2016-May-30 08:33N 37°57' E 023°38'1111.1
2016-May-30 07:33N 37°48' E 023°29'3 3.1
2016-May-30 06:33N 37°47' E 023°26'1312.6
2016-May-30 05:34N 37°56' E 023°37'2 1.7
2016-May-30 04:33N 37°57' E 023°39'0 0.0
2016-May-29 19:33N 37°57' E 023°39'1010.1
2016-May-29 18:33N 37°49' E 023°30'5 5.4
2016-May-29 17:33N 37°46' E 023°25'1212.3
2016-May-29 16:33N 37°54' E 023°36'1 1.1
2016-May-29 15:33N 37°54' E 023°35'1111.3
2016-May-29 14:32N 37°45' E 023°25'4 4.0
2016-May-29 13:33N 37°48' E 023°28'1211.7
2016-May-29 12:33N 37°57' E 023°38'6 5.6
2016-May-29 11:33N 37°53' E 023°34'1010.2
2016-May-29 10:33N 37°45' E 023°25'4 3.7
2016-May-29 09:33N 37°48' E 023°28'1212.0
2016-May-29 08:33N 37°57' E 023°38'4 3.7
2016-May-29 07:33N 37°54' E 023°35'1212.1
2016-May-29 06:33N 37°45' E 023°25'6 6.4
2016-May-29 05:33N 37°50' E 023°30'9 9.6
2016-May-29 04:33N 37°57' E 023°39'2 0.1
2016-May-28 16:33N 37°56' E 023°37'1312.8
2016-May-28 15:33N 37°47' E 023°25'0 0.4
2016-May-28 14:33N 37°46' E 023°25'1212.1
2016-May-28 13:34N 37°55' E 023°36'1 1.1
2016-May-28 12:33N 37°56' E 023°37'1312.6
2016-May-28 11:33N 37°47' E 023°26'0 0.2
2016-May-28 10:33N 37°47' E 023°25'1212.1
2016-May-28 09:34N 37°55' E 023°36'2 2.3
2016-May-28 08:33N 37°57' E 023°38'1212.2
2016-May-28 07:33N 37°48' E 023°28'2 1.7
2016-May-28 06:33N 37°47' E 023°26'1212.2
2016-May-28 05:33N 37°56' E 023°37'2 1.8
2016-May-28 04:33N 37°57' E 023°39'2 0.1
2016-May-27 16:33N 37°56' E 023°37'1312.7
2016-May-27 15:33N 37°47' E 023°26'0 0.3
2016-May-27 14:33N 37°46' E 023°25'1212.2
2016-May-27 13:34N 37°55' E 023°36'1 1.1
2016-May-27 12:33N 37°56' E 023°37'1312.6
2016-May-27 11:34N 37°47' E 023°26'1 0.8
2016-May-27 10:33N 37°46' E 023°25'1211.8
2016-May-27 09:33N 37°55' E 023°36'2 1.9
2016-May-27 08:33N 37°56' E 023°37'1111.0
2016-May-27 07:33N 37°48' E 023°28'2 1.9
2016-May-27 06:33N 37°47' E 023°26'1212.2
2016-May-27 05:34N 37°55' E 023°36'2 2.0
2016-May-27 04:33N 37°57' E 023°39'1 0.1
2016-May-26 16:33N 37°56' E 023°37'1312.8
2016-May-26 15:33N 37°47' E 023°26'0 0.1
2016-May-26 14:33N 37°47' E 023°26'1212.0
2016-May-26 13:33N 37°55' E 023°36'1 0.9
2016-May-26 12:33N 37°56' E 023°37'1312.8
2016-May-26 11:34N 37°47' E 023°26'0 0.5
2016-May-26 10:33N 37°46' E 023°25'1212.1
2016-May-26 09:33N 37°55' E 023°36'2 2.4
2016-May-26 08:33N 37°57' E 023°38'1211.9
2016-May-26 07:33N 37°48' E 023°28'2 1.9
2016-May-26 06:33N 37°47' E 023°26'1211.9
2016-May-26 05:33N 37°55' E 023°36'2 2.1
2016-May-26 04:33N 37°57' E 023°39'0 0.0
2016-May-25 17:08N 37°57' E 023°39'3 4.8
2016-May-25 16:34N 37°55' E 023°36'1211.9
2016-May-25 15:33N 37°46' E 023°25'0 0.1
2016-May-25 14:33N 37°46' E 023°25'1212.2
2016-May-25 13:33N 37°55' E 023°36'2 1.5
2016-May-25 12:25N 37°54' E 023°35'10 5.5
2016-May-25 10:33N 37°47' E 023°26'1212.1
2016-May-25 09:34N 37°55' E 023°36'2 1.6
2016-May-25 08:33N 37°56' E 023°38'1511.5
2016-May-25 07:15N 37°45' E 023°25'2 2.8
2016-May-25 06:33N 37°47' E 023°26'1212.0
2016-May-25 05:33N 37°56' E 023°36'2 1.9
2016-May-25 04:34N 37°57' E 023°39'0 0.0
2016-May-24 17:10N 37°57' E 023°39'2 3.4
2016-May-24 16:33N 37°56' E 023°36'1212.2
2016-May-24 15:33N 37°47' E 023°26'0 0.3
2016-May-24 14:34N 37°47' E 023°26'1212.3
2016-May-24 13:33N 37°55' E 023°36'1 0.5
2016-May-24 12:33N 37°56' E 023°37'1312.6
2016-May-24 11:33N 37°47' E 023°26'0 0.2
2016-May-24 10:33N 37°47' E 023°26'1212.2
2016-May-24 09:33N 37°55' E 023°37'2 1.9
2016-May-24 08:33N 37°57' E 023°38'1211.9
2016-May-24 07:33N 37°48' E 023°28'2 1.9
2016-May-24 06:33N 37°47' E 023°26'1212.3
2016-May-24 05:33N 37°56' E 023°37'2 1.5
2016-May-24 04:33N 37°57' E 023°38'2 0.1
2016-May-23 16:33N 37°56' E 023°36'1312.6
2016-May-23 15:33N 37°47' E 023°26'1 0.6
2016-May-23 14:33N 37°46' E 023°25'1212.1
2016-May-23 13:34N 37°55' E 023°36'1 1.0
2016-May-23 12:34N 37°56' E 023°37'1312.7
2016-May-23 11:34N 37°46' E 023°25'0 0.1
2016-May-23 10:33N 37°47' E 023°26'1212.1
2016-May-23 09:33N 37°55' E 023°36'2 2.0
2016-May-23 08:33N 37°56' E 023°38'1212.2
2016-May-23 07:34N 37°48' E 023°28'2 1.7
2016-May-23 06:34N 37°47' E 023°26'1212.1
2016-May-23 05:33N 37°55' E 023°37'2 1.9
2016-May-23 04:34N 37°57' E 023°39'0 0.0
2016-May-22 17:23N 37°57' E 023°39'3 3.4
2016-May-22 16:33N 37°55' E 023°36'1211.7
2016-May-22 15:33N 37°47' E 023°25'1 0.6
2016-May-22 14:33N 37°46' E 023°25'1212.5
2016-May-22 13:33N 37°55' E 023°36'0 0.1
2016-May-22 12:34N 37°55' E 023°36'1211.9
2016-May-22 11:34N 37°46' E 023°25'1 0.6
2016-May-22 10:33N 37°46' E 023°25'1212.3
2016-May-22 09:34N 37°55' E 023°36'2 2.3
2016-May-22 08:34N 37°56' E 023°38'1211.6
2016-May-22 07:33N 37°48' E 023°28'2 1.8
2016-May-22 06:34N 37°47' E 023°26'1212.3
2016-May-22 05:34N 37°56' E 023°37'2 1.6
2016-May-22 04:34N 37°57' E 023°39'  

Dump ship's entire track history